Iqaluit, Nunavut

11:19 AM EDT on August 04, 2015 (GMT -0400)
Iqaluit | | Change Station
CLOSE
Current Station
Airport
Location: Iqaluit,
Elevation: 112 ft
Nearby Weather Stations

Elev 112 ft 63.76 °N, 68.56 °W | Updated 19 minutes ago

Mostly Cloudy
Mostly Cloudy
39 °F
Feels Like 37 °F
N
4
Wind Variable Wind from SSE

Today is forecast to be nearly the same temperature as yesterday.

Today
High -- | Low -- °F
--% Chance of Precip.
Yesterday
High -- | Low -- °F
Precip. -- in
3:53 AM 9:24 PM
Waning Gibbous, 77% visible
Pressure 30.25 in
Visibility 30.0 miles
Clouds Few 1500 ft
Mostly Cloudy 9400 ft
Windchill 37 °F
Dew Point 36 °F
Humidity 87%
Rainfall 0.00 in
Snow Depth Not available.
UV 3 out of 12
Pollen Not available.
Air Quality Not available.
Flu Activity Not available.
METAR CYFB 041500Z 15003KT 110V170 30SM VCFG FEW015 BKN094 04/02 A3023 RMK SF1AC5 SLP241

More Conditions Fewer Conditions

Pressure 30.25 in
Visibility 30.0 miles
Clouds Few 1500 ft
Mostly Cloudy 9400 ft
Windchill 37 °F
Dew Point 36 °F
Humidity 87%
Rainfall 0.00 in
Snow Depth Not available.
UV 3 out of 12
Pollen Not available.
Air Quality Not available.
Flu Activity Not available.
METAR CYFB 041500Z 15003KT 110V170 30SM VCFG FEW015 BKN094 04/02 A3023 RMK SF1AC5 SLP241

More Conditions Fewer Conditions

10-Day Weather Forecast

×

Almanac

Astronomy

Aug. 04, 2015 Rise Set
Actual Time
Civil Twilight
Nautical Twilight
Astronomical Twilight
Moon
Length of Visible Light
Length of Day
Tomorrow will be .
, % of the Moon is Illuminated

Today's Extremes

Country Highs Country Lows

Community

WunderPhotos

Upload Photos

1,843,905 photos uploaded!

WunderBlogs® & News

Nearby

Air Quality

  Air Quality AQ Index Pollutant
Not available.

Snow Depth

Station Depth Elevation

Earthquake Activity

City Distance Mag. Time & Date
Minimum magnitude displayed is 2.5.

Coastal Water Temperatures

Place Temperature

Stations

Nearby Weather Stations

Station Location Temp. Windchill Dew Point Humidity Wind Precip. Elev Updated Type